Time;durP1;ratioP1;P1;durP2;ratioP2;P2;SDS_P1;SDS_P2;PMS_P1;PMS_P2;Temp;Humidity;BMP_temperature;BMP_pressure;BME280_temperature;BME280_humidity;BME280_pressure;Samples;Min_cycle;Max_cycle;Signal;HPM_P1;HPM_P2
2022/01/07 00:01:02;;;;;;;15.98;7.47;;;;;;;3.83;74.64;101348.25;7390780;19;20476;-64
2022/01/07 00:03:32;;;;;;;19.50;8.35;;;;;;;3.82;74.34;101341.34;7390331;19;20014;-64
2022/01/07 00:06:01;;;;;;;15.50;6.90;;;;;;;3.86;74.61;101337.84;7387877;19;20032;-65
2022/01/07 00:08:34;;;;;;;15.15;7.20;;;;;;;3.86;74.87;101337.00;7389747;19;20007;-64
2022/01/07 00:11:03;;;;;;;18.83;7.57;;;;;;;3.88;74.57;101335.25;7389626;19;20075;-64
2022/01/07 00:13:32;;;;;;;17.70;8.20;;;;;;;3.89;74.31;101327.44;7388768;19;20490;-65
2022/01/07 00:16:01;;;;;;;19.25;7.45;;;;;;;3.89;74.92;101317.09;7386238;19;20018;-65
2022/01/07 00:18:29;;;;;;;16.88;7.10;;;;;;;3.94;74.07;101328.28;7388804;19;20016;-65
2022/01/07 00:20:59;;;;;;;16.48;7.03;;;;;;;3.92;73.99;101311.03;7388125;19;20070;-64
2022/01/07 00:23:28;;;;;;;15.90;7.05;;;;;;;3.89;74.14;101324.00;7388611;19;20082;-65
2022/01/07 00:26:00;;;;;;;20.67;8.13;;;;;;;3.90;74.26;101311.03;7387072;19;20366;-65
2022/01/07 00:28:28;;;;;;;16.98;8.70;;;;;;;3.92;74.84;101311.88;7388458;19;20137;-65
2022/01/07 00:30:58;;;;;;;17.67;7.93;;;;;;;3.89;74.89;101311.91;7388787;19;20046;-65
2022/01/07 00:33:26;;;;;;;16.80;7.35;;;;;;;3.87;74.69;101300.69;7388904;19;20014;-64
2022/01/07 00:35:56;;;;;;;16.30;7.57;;;;;;;3.81;75.49;101306.78;7387611;19;20082;-65
2022/01/07 00:38:27;;;;;;;20.63;8.02;;;;;;;3.74;76.22;101294.75;7388335;19;20018;-66
2022/01/07 00:40:56;;;;;;;13.75;6.55;;;;;;;3.69;76.69;101288.75;7388707;19;20534;-64
2022/01/07 00:43:28;;;;;;;16.02;7.00;;;;;;;3.66;77.10;101287.91;7387974;19;20106;-62
2022/01/07 00:45:57;;;;;;;15.88;7.43;;;;;;;3.47;77.44;101282.88;7386526;19;20024;-63
2022/01/07 00:48:26;;;;;;;14.95;7.75;;;;;;;3.43;78.71;101274.25;7395036;19;20066;-64
2022/01/07 00:50:55;;;;;;;12.85;7.10;;;;;;;3.34;79.07;101276.03;7402647;19;20022;-64
2022/01/07 00:53:24;;;;;;;17.25;7.60;;;;;;;3.27;79.76;101283.03;7402464;19;20014;-64
2022/01/07 00:55:53;;;;;;;15.80;6.95;;;;;;;3.26;80.20;101271.78;7399593;19;20082;-65
2022/01/07 00:58:22;;;;;;;17.90;8.18;;;;;;;3.22;80.51;101264.91;7402354;19;20367;-65
2022/01/07 01:00:53;;;;;;;12.90;7.53;;;;;;;3.15;80.69;101272.72;7402400;19;20596;-63
2022/01/07 01:03:22;;;;;;;18.48;8.00;;;;;;;3.03;81.60;101264.16;7402117;19;20006;-64
2022/01/07 01:05:51;;;;;;;13.75;8.25;;;;;;;2.97;82.88;101264.19;7400272;19;20017;-64
2022/01/07 01:08:20;;;;;;;18.33;8.40;;;;;;;2.95;83.35;101268.50;7402249;19;20049;-64
2022/01/07 01:10:49;;;;;;;13.95;8.43;;;;;;;2.94;83.23;101259.91;7402824;19;20066;-64
2022/01/07 01:13:17;;;;;;;17.55;8.90;;;;;;;2.83;83.71;101251.31;7401560;19;20025;-64
2022/01/07 01:15:46;;;;;;;20.65;9.18;;;;;;;2.76;84.27;101247.91;7400513;19;20026;-65
2022/01/07 01:18:18;;;;;;;19.63;9.38;;;;;;;2.73;85.21;101252.25;7401379;19;20010;-65
2022/01/07 01:20:47;;;;;;;23.20;9.27;;;;;;;2.75;85.61;101241.03;7401890;19;20018;-64
2022/01/07 01:23:16;;;;;;;19.35;9.63;;;;;;;2.76;86.04;101247.06;7401910;19;20021;-64
2022/01/07 01:25:45;;;;;;;17.33;9.93;;;;;;;2.71;86.08;101247.09;7400905;19;20010;-65
2022/01/07 01:28:13;;;;;;;17.48;8.82;;;;;;;2.68;86.67;101243.63;7401808;19;20019;-64
2022/01/07 01:30:42;;;;;;;18.25;9.40;;;;;;;2.62;86.59;101241.94;7401350;19;20024;-65
2022/01/07 01:33:12;;;;;;;16.08;9.68;;;;;;;2.58;86.82;101253.19;7401565;19;20089;-64
2022/01/07 01:35:43;;;;;;;15.95;9.80;;;;;;;2.57;87.16;101230.75;7400777;19;20385;-65
2022/01/07 01:38:13;;;;;;;20.05;10.32;;;;;;;2.52;87.76;101223.03;7401952;19;20030;-63
2022/01/07 01:40:42;;;;;;;22.52;9.93;;;;;;;2.50;88.25;101222.16;7401305;19;20015;-63
2022/01/07 01:43:10;;;;;;;22.00;9.95;;;;;;;2.51;88.39;101220.47;7401370;19;20026;-65
2022/01/07 01:45:39;;;;;;;17.80;9.50;;;;;;;2.53;88.66;101206.63;7400353;19;20037;-67
2022/01/07 01:48:08;;;;;;;22.55;9.73;;;;;;;2.55;88.90;101207.50;7400870;19;20025;-65
2022/01/07 01:50:37;;;;;;;21.60;9.88;;;;;;;2.64;89.23;101200.56;7401398;19;20498;-65
2022/01/07 01:53:08;;;;;;;17.58;9.80;;;;;;;2.63;89.10;101197.09;7402339;19;20026;-65
2022/01/07 01:55:37;;;;;;;19.20;9.85;;;;;;;2.59;88.59;101191.09;7400287;19;20025;-63
2022/01/07 01:58:06;;;;;;;20.00;10.23;;;;;;;2.59;88.61;101191.09;7400904;19;20100;-64
2022/01/07 02:00:36;;;;;;;19.88;9.75;;;;;;;2.62;88.56;101181.59;7391437;19;20025;-64
2022/01/07 02:03:05;;;;;;;17.67;9.00;;;;;;;2.66;88.72;101185.88;7394309;19;20017;-65
2022/01/07 02:05:35;;;;;;;18.55;9.57;;;;;;;2.68;88.66;101177.25;7393862;19;20483;-66
2022/01/07 02:08:04;;;;;;;20.70;9.35;;;;;;;2.72;88.35;101178.94;7393850;19;20015;-70
2022/01/07 02:10:35;;;;;;;14.52;9.40;;;;;;;2.76;88.33;101174.59;7394047;19;20011;-61
2022/01/07 02:13:04;;;;;;;19.77;9.50;;;;;;;2.80;88.06;101170.28;7393012;19;20014;-64
2022/01/07 02:15:33;;;;;;;21.67;10.07;;;;;;;2.80;87.86;101155.59;7391945;19;20141;-64
2022/01/07 02:18:02;;;;;;;15.05;8.77;;;;;;;2.75;87.76;101162.53;7392873;19;20010;-64
2022/01/07 02:20:34;;;;;;;22.60;10.32;;;;;;;2.74;87.86;101156.50;7393344;19;20015;-64
2022/01/07 02:23:03;;;;;;;21.00;9.98;;;;;;;2.74;88.21;101153.91;7393436;19;20021;-64
2022/01/07 02:25:32;;;;;;;20.20;9.80;;;;;;;2.71;88.38;101156.53;7391251;19;20094;-65
2022/01/07 02:28:01;;;;;;;16.52;9.20;;;;;;;2.79;88.22;101147.84;7392866;19;20021;-64
2022/01/07 02:30:32;;;;;;;20.70;9.18;;;;;;;2.80;88.29;101147.00;7392855;19;20452;-64
2022/01/07 02:33:01;;;;;;;17.10;9.00;;;;;;;2.82;87.88;101145.22;7393096;19;20017;-64
2022/01/07 02:35:35;;;;;;;15.45;9.15;;;;;;;2.76;87.89;101143.53;7392539;19;20033;-62
2022/01/07 02:38:06;;;;;;;19.63;9.65;;;;;;;2.77;88.25;101143.53;7391671;19;20110;-64
2022/01/07 02:40:35;;;;;;;18.63;8.77;;;;;;;2.78;88.31;101136.66;7392277;19;20015;-64
2022/01/07 02:43:03;;;;;;;15.45;8.55;;;;;;;2.81;88.17;101141.78;7392363;19;20410;-61
2022/01/07 02:45:32;;;;;;;20.98;8.90;;;;;;;2.81;88.42;101130.56;7391608;19;20018;-63
2022/01/07 02:48:03;;;;;;;16.83;8.95;;;;;;;2.81;88.44;101127.97;7391782;19;20021;-63
2022/01/07 02:50:36;;;;;;;16.15;8.20;;;;;;;2.88;88.97;101127.06;7390508;19;20010;-63
2022/01/07 02:53:07;;;;;;;15.98;8.43;;;;;;;2.79;88.09;101132.31;7392361;19;20360;-65
2022/01/07 02:55:37;;;;;;;17.35;8.07;;;;;;;2.75;88.15;101127.16;7391089;19;20022;-64
2022/01/07 02:58:06;;;;;;;16.38;7.90;;;;;;;2.69;87.66;101128.94;7392477;19;20018;-61
2022/01/07 03:00:36;;;;;;;18.75;7.70;;;;;;;2.71;88.50;101122.88;7390244;19;20098;-65
2022/01/07 03:03:06;;;;;;;16.23;7.80;;;;;;;2.71;88.82;101119.44;7392330;19;20025;-63
2022/01/07 03:05:41;;;;;;;16.10;8.13;;;;;;;2.66;88.82;101119.47;7391276;19;20025;-63
2022/01/07 03:08:11;;;;;;;18.05;8.23;;;;;;;2.70;89.45;101107.38;7392078;19;20017;-63
2022/01/07 03:10:40;;;;;;;17.58;7.90;;;;;;;2.70;89.81;101115.13;7391249;19;20017;-62
2022/01/07 03:13:09;;;;;;;18.15;8.35;;;;;;;2.74;90.42;101109.06;7391282;19;20017;-63
2022/01/07 03:15:39;;;;;;;12.75;8.00;;;;;;;2.76;90.20;101107.31;7390865;19;20014;-64
2022/01/07 03:18:10;;;;;;;16.15;7.72;;;;;;;2.80;90.36;101100.41;7388076;19;20025;-65
2022/01/07 03:20:42;;;;;;;15.02;7.85;;;;;;;2.84;90.31;101095.19;7391091;19;20112;-64
2022/01/07 03:23:13;;;;;;;14.23;7.55;;;;;;;2.84;89.88;101095.19;7391140;19;20010;-63
2022/01/07 03:25:42;;;;;;;14.18;7.20;;;;;;;2.85;89.65;101077.91;7390315;19;20095;-65
2022/01/07 03:28:11;;;;;;;15.40;7.53;;;;;;;2.87;89.63;101083.97;7391237;19;20018;-64
2022/01/07 03:30:40;;;;;;;14.43;7.80;;;;;;;2.82;89.24;101078.78;7392521;19;20010;-63
2022/01/07 03:33:09;;;;;;;17.48;7.88;;;;;;;2.85;89.69;101071.03;7391259;19;20458;-63
2022/01/07 03:35:41;;;;;;;15.43;8.38;;;;;;;2.91;90.11;101075.31;7391270;19;20022;-61
2022/01/07 03:38:11;;;;;;;18.70;8.30;;;;;;;2.85;89.72;101071.03;7389264;19;20355;-62
2022/01/07 03:40:40;;;;;;;14.63;7.40;;;;;;;2.86;90.16;101062.38;7390095;19;20069;-61
2022/01/07 03:43:10;;;;;;;19.33;8.02;;;;;;;2.82;89.83;101059.84;7391176;19;20023;-63
2022/01/07 03:45:39;;;;;;;13.82;7.57;;;;;;;2.78;90.04;101059.03;7390681;19;20086;-60
2022/01/07 03:48:08;;;;;;;15.38;7.80;;;;;;;2.79;90.26;101055.53;7389844;19;20007;-62
2022/01/07 03:50:37;;;;;;;13.95;8.13;;;;;;;2.72;90.04;101054.75;7394936;19;20364;-61
2022/01/07 03:53:08;;;;;;;16.48;8.40;;;;;;;2.76;91.06;101060.75;7391416;19;20014;-63
2022/01/07 03:55:37;;;;;;;13.32;8.13;;;;;;;2.71;91.40;101055.63;7390524;19;20029;-62
2022/01/07 03:58:06;;;;;;;15.57;8.27;;;;;;;2.73;91.61;101045.25;7389324;19;20723;-62
2022/01/07 04:00:38;;;;;;;15.55;8.18;;;;;;;2.75;91.76;101046.06;7390336;19;20020;-62
2022/01/07 04:03:09;;;;;;;14.13;8.45;;;;;;;2.79;92.23;101037.41;7390606;19;20022;-63
2022/01/07 04:05:38;;;;;;;16.33;9.40;;;;;;;2.79;92.40;101040.00;7389084;19;20027;-62
2022/01/07 04:08:11;;;;;;;12.20;7.97;;;;;;;2.77;92.27;101041.75;7389988;19;20014;-62
2022/01/07 04:10:40;;;;;;;16.45;8.82;;;;;;;2.77;92.19;101041.75;7391542;19;20413;-63
2022/01/07 04:13:09;;;;;;;16.45;9.10;;;;;;;2.75;92.07;101041.78;7389920;19;20007;-63
2022/01/07 04:15:38;;;;;;;16.65;9.27;;;;;;;2.69;91.96;101046.97;7389276;19;20563;-61
2022/01/07 04:18:07;;;;;;;15.80;9.23;;;;;;;2.72;92.24;101040.94;7388521;19;20026;-63
2022/01/07 04:20:38;;;;;;;16.38;8.82;;;;;;;2.75;92.52;101039.19;7390883;19;20018;-64
2022/01/07 04:23:10;;;;;;;14.68;8.93;;;;;;;2.74;92.56;101040.06;7388754;19;20022;-64
2022/01/07 04:25:39;;;;;;;15.63;8.98;;;;;;;2.77;92.94;101034.00;7390634;19;20037;-65
2022/01/07 04:28:10;;;;;;;17.75;9.48;;;;;;;2.78;92.97;101035.72;7390474;19;20015;-63
2022/01/07 04:30:42;;;;;;;18.17;9.82;;;;;;;2.72;92.70;101035.75;7388995;19;20482;-64
2022/01/07 04:33:14;;;;;;;17.30;10.18;;;;;;;2.65;92.92;101034.97;7390190;19;20051;-65
2022/01/07 04:35:45;;;;;;;13.77;10.60;;;;;;;2.58;92.94;101033.31;7390057;19;20010;-64
2022/01/07 04:38:16;;;;;;;15.32;10.00;;;;;;;2.51;93.20;101029.91;7389849;19;20010;-63
2022/01/07 04:40:45;;;;;;;17.63;10.47;;;;;;;2.43;93.20;101039.44;7392314;19;20007;-63
2022/01/07 04:43:14;;;;;;;15.93;10.13;;;;;;;2.32;93.72;101029.19;7389266;19;20263;-63
2022/01/07 04:45:44;;;;;;;14.65;11.02;;;;;;;2.25;93.89;101033.53;7391278;19;20014;-64
2022/01/07 04:48:13;;;;;;;17.23;10.65;;;;;;;2.22;94.54;101027.50;7390967;19;20011;-63
2022/01/07 04:50:42;;;;;;;17.70;11.82;;;;;;;2.18;94.59;101024.09;7392225;19;20006;-61
2022/01/07 04:53:11;;;;;;;16.48;12.07;;;;;;;2.19;95.09;101017.19;7391325;19;20364;-63
2022/01/07 04:55:44;;;;;;;17.58;12.40;;;;;;;2.23;95.44;101014.56;7388241;19;20026;-62
2022/01/07 04:58:15;;;;;;;16.73;12.00;;;;;;;2.34;95.74;101008.47;7387845;19;20123;-62
2022/01/07 05:00:46;;;;;;;18.90;12.13;;;;;;;2.38;95.82;101012.75;7388593;19;20528;-62
2022/01/07 05:03:15;;;;;;;20.10;12.85;;;;;;;2.41;95.91;101005.81;7389045;19;20066;-63
2022/01/07 05:05:49;;;;;;;20.83;13.35;;;;;;;2.47;96.06;100998.91;7392014;19;20045;-64
2022/01/07 05:08:19;;;;;;;20.27;14.10;;;;;;;2.54;96.04;100998.81;7397545;19;20116;-64
2022/01/07 05:10:50;;;;;;;20.48;13.65;;;;;;;2.49;96.13;101002.31;7397053;19;20096;-64
2022/01/07 05:13:19;;;;;;;21.50;13.48;;;;;;;2.45;96.17;100998.03;7396649;19;20010;-64
2022/01/07 05:15:48;;;;;;;18.92;13.88;;;;;;;2.48;96.54;100996.31;7392030;19;20475;-64
2022/01/07 05:18:17;;;;;;;25.17;14.70;;;;;;;2.56;96.65;100994.50;7386699;19;20018;-66
2022/01/07 05:20:47;;;;;;;19.80;13.80;;;;;;;2.59;96.36;100993.59;7388554;19;20130;-63
2022/01/07 05:23:16;;;;;;;20.88;12.98;;;;;;;2.54;96.36;100991.06;7389093;19;20038;-64
2022/01/07 05:25:45;;;;;;;36.42;22.38;;;;;;;2.55;96.46;100992.78;7387195;19;20019;-64
2022/01/07 05:28:16;;;;;;;21.10;13.70;;;;;;;2.57;96.58;100988.44;7388463;19;20095;-63
2022/01/07 05:30:45;;;;;;;31.60;16.27;;;;;;;2.60;96.58;100975.47;7389500;19;20017;-62
2022/01/07 05:33:13;;;;;;;17.90;13.60;;;;;;;2.60;96.65;100975.47;7389364;19;20014;-64
2022/01/07 05:35:42;;;;;;;19.40;14.18;;;;;;;2.67;96.78;100985.81;7391932;19;20018;-65
2022/01/07 05:38:11;;;;;;;20.00;14.52;;;;;;;2.74;96.91;100983.13;7395350;19;20361;-65
2022/01/07 05:40:40;;;;;;;18.00;14.00;;;;;;;2.77;96.86;100967.56;7396123;19;20126;-64
2022/01/07 05:43:09;;;;;;;22.02;14.88;;;;;;;2.81;96.86;100964.94;7395020;19;20011;-63
2022/01/07 05:45:40;;;;;;;22.38;15.73;;;;;;;2.83;96.79;100963.22;7393810;19;20464;-64
2022/01/07 05:48:09;;;;;;;21.70;14.77;;;;;;;2.86;96.93;100961.44;7395235;19;20062;-64
2022/01/07 05:50:38;;;;;;;21.80;15.27;;;;;;;2.88;97.17;100964.00;7395824;19;20247;-63
2022/01/07 05:53:07;;;;;;;19.85;14.20;;;;;;;2.87;97.36;100960.59;7395355;19;20010;-61
2022/01/07 05:55:36;;;;;;;19.92;14.35;;;;;;;2.84;97.29;100957.19;7394559;19;20016;-63
2022/01/07 05:58:05;;;;;;;23.73;15.07;;;;;;;2.90;97.41;100964.88;7392114;19;20019;-62
2022/01/07 06:00:34;;;;;;;20.38;15.07;;;;;;;2.92;97.30;100953.63;7395904;19;20371;-63
2022/01/07 06:03:05;;;;;;;25.42;16.35;;;;;;;3.00;97.63;100961.31;7394981;19;20503;-64
2022/01/07 06:05:34;;;;;;;21.48;15.38;;;;;;;3.02;97.50;100954.38;7393531;19;20038;-64
2022/01/07 06:08:03;;;;;;;22.95;15.90;;;;;;;3.06;97.09;100962.97;7390697;19;20015;-63
2022/01/07 06:10:32;;;;;;;22.85;16.27;;;;;;;3.10;97.26;100962.91;7394417;19;20015;-60
2022/01/07 06:13:01;;;;;;;21.77;16.10;;;;;;;3.07;96.94;100964.69;7393747;19;20021;-64
2022/01/07 06:15:29;;;;;;;26.05;16.92;;;;;;;3.18;97.23;100954.22;7392131;19;20010;-63
2022/01/07 06:17:59;;;;;;;26.88;17.92;;;;;;;3.22;97.18;100946.38;7391609;19;20025;-64
2022/01/07 06:20:31;;;;;;;23.52;17.45;;;;;;;3.29;97.07;100942.00;7394505;19;20019;-63
2022/01/07 06:23:00;;;;;;;26.27;17.23;;;;;;;3.31;96.80;100945.44;7395069;19;20020;-63
2022/01/07 06:25:28;;;;;;;25.60;17.90;;;;;;;3.30;96.78;100948.91;7392927;19;20244;-63
2022/01/07 06:27:57;;;;;;;25.10;17.05;;;;;;;3.27;96.44;100951.53;7393027;19;20021;-63
2022/01/07 06:30:26;;;;;;;25.33;18.02;;;;;;;3.31;96.96;100958.38;7394098;19;20024;-61
2022/01/07 06:32:55;;;;;;;23.52;17.40;;;;;;;3.36;96.92;100955.72;7393310;19;20078;-64
2022/01/07 06:35:24;;;;;;;23.27;16.80;;;;;;;3.39;96.71;100955.69;7393328;19;20025;-64
2022/01/07 06:37:55;;;;;;;26.00;17.52;;;;;;;3.40;96.48;100955.66;7392013;19;20091;-64
2022/01/07 06:40:24;;;;;;;23.85;17.13;;;;;;;3.38;96.45;100959.16;7392800;19;20018;-64
2022/01/07 06:42:53;;;;;;;23.80;17.83;;;;;;;3.41;96.44;100952.22;7390091;19;20022;-61
2022/01/07 06:45:22;;;;;;;26.60;17.08;;;;;;;3.47;96.62;100956.47;7389100;19;20020;-62
2022/01/07 06:47:51;;;;;;;26.58;18.27;;;;;;;3.48;96.45;100955.56;7392661;19;20014;-61
2022/01/07 06:50:20;;;;;;;32.50;19.05;;;;;;;3.49;96.48;100959.88;7392166;19;20014;-61
2022/01/07 06:52:49;;;;;;;26.05;18.05;;;;;;;3.55;96.50;100959.78;7390749;19;20483;-60
2022/01/07 06:55:21;;;;;;;27.35;18.95;;;;;;;3.59;96.48;100965.81;7393122;19;20551;-63
2022/01/07 06:57:49;;;;;;;27.95;18.85;;;;;;;3.61;96.44;100959.72;7390906;19;20014;-63
2022/01/07 07:00:19;;;;;;;31.25;20.73;;;;;;;3.65;96.24;100963.13;7391861;19;20018;-62
2022/01/07 07:02:48;;;;;;;26.27;19.23;;;;;;;3.64;96.23;100970.03;7392207;19;20400;-63
2022/01/07 07:05:17;;;;;;;26.80;18.08;;;;;;;3.66;95.84;100972.63;7391846;19;20115;-63
2022/01/07 07:07:46;;;;;;;33.90;21.02;;;;;;;3.68;96.16;100963.06;7391240;19;20015;-64
2022/01/07 07:10:15;;;;;;;25.92;19.30;;;;;;;3.70;96.01;100968.25;7392247;19;20073;-64
2022/01/07 07:12:47;;;;;;;32.22;20.83;;;;;;;3.74;96.07;100965.59;7392266;19;20080;-65
2022/01/07 07:15:16;;;;;;;;;;;;;;;3.73;95.78;100970.81;7390751;19;20036;-65
2022/01/07 07:17:45;;;;;;;34.58;21.02;;;;;;;3.73;95.96;100963.88;7390633;19;19974;-64
2022/01/07 07:20:15;;;;;;;31.63;20.80;;;;;;;3.78;96.14;100961.22;7391943;19;20018;-62
2022/01/07 07:22:44;;;;;;;30.80;21.52;;;;;;;3.85;96.27;100968.03;7393114;19;20468;-65
2022/01/07 07:25:13;;;;;;;30.80;22.25;;;;;;;3.87;96.10;100960.22;7391611;19;20014;-64
2022/01/07 07:27:43;;;;;;;40.45;23.45;;;;;;;3.90;96.19;100966.25;7391091;19;20035;-61
2022/01/07 07:30:15;;;;;;;31.17;20.55;;;;;;;3.92;95.66;100959.28;7391851;19;20018;-63
2022/01/07 07:32:44;;;;;;;28.95;21.38;;;;;;;3.91;95.71;100960.19;7391803;19;20517;-62
2022/01/07 07:37:57;;;;;;;36.70;22.70;;;;;;;3.89;95.56;100958.50;7389257;19;20748;-63
2022/01/07 07:40:26;;;;;;;32.97;22.35;;;;;;;3.96;95.94;100954.94;7392032;19;20103;-64
2022/01/07 07:42:55;;;;;;;34.47;21.92;;;;;;;4.00;95.77;100961.78;7392356;19;20377;-64
2022/01/07 07:45:26;;;;;;;34.95;21.90;;;;;;;4.03;95.62;100953.13;7392922;19;20010;-64
2022/01/07 07:47:55;;;;;;;32.63;21.45;;;;;;;4.04;95.31;100944.44;7391409;19;20145;-64
2022/01/07 07:50:24;;;;;;;35.80;20.48;;;;;;;4.06;95.19;100953.91;7390503;19;20018;-62
2022/01/07 07:52:53;;;;;;;31.85;20.33;;;;;;;4.07;94.99;100947.84;7390409;19;20013;-64
2022/01/07 07:55:21;;;;;;;31.88;20.45;;;;;;;4.07;95.04;100953.03;7390078;19;20040;-64
2022/01/07 07:57:51;;;;;;;29.15;19.67;;;;;;;4.10;94.79;100947.78;7388250;19;20014;-64
2022/01/07 08:00:19;;;;;;;28.90;19.23;;;;;;;4.12;94.67;100956.41;7389884;19;20018;-65
2022/01/07 08:02:51;;;;;;;29.98;20.33;;;;;;;4.10;94.35;100952.13;7390436;19;20019;-65
2022/01/07 08:05:20;;;;;;;29.20;19.98;;;;;;;4.10;94.24;100949.53;7388434;19;20474;-64
2022/01/07 08:07:49;;;;;;;28.58;20.27;;;;;;;4.11;94.18;100949.53;7390039;19;20544;-65
2022/01/07 08:10:23;;;;;;;28.80;19.25;;;;;;;4.12;94.34;100950.38;7388153;19;20015;-64
2022/01/07 08:13:03;;;;;;;34.80;20.35;;;;;;;4.13;94.29;100941.72;7390734;19;20052;-65
2022/01/07 08:18:18;;;;;;;28.92;19.48;;;;;;;4.15;94.45;100940.81;7390847;19;20018;-65
2022/01/07 08:20:47;;;;;;;31.50;21.50;;;;;;;4.21;94.53;100924.28;7389882;19;20014;-65
2022/01/07 08:23:16;;;;;;;31.05;21.02;;;;;;;4.21;94.11;100934.66;7388214;19;20021;-63
2022/01/07 08:25:45;;;;;;;37.00;22.38;;;;;;;4.20;94.07;100939.84;7390327;19;20024;-64
2022/01/07 08:28:16;;;;;;;31.35;21.45;;;;;;;4.25;94.17;100941.50;7389791;19;20480;-65
2022/01/07 08:36:18;;;;;;;32.13;20.25;;;;;;;4.28;94.13;100943.19;7387340;19;20481;-64
2022/01/07 08:38:47;;;;;;;31.70;20.05;;;;;;;4.23;93.46;100937.25;7390331;19;20039;-64
2022/01/07 08:41:16;;;;;;;30.92;19.98;;;;;;;4.24;93.30;100944.13;7390402;19;20020;-64
2022/01/07 08:43:46;;;;;;;30.42;20.95;;;;;;;4.25;93.64;100940.66;7390300;19;20021;-64
2022/01/07 08:46:14;;;;;;;31.83;20.13;;;;;;;4.30;93.95;100929.31;7388102;19;20011;-64
2022/01/07 08:48:46;;;;;;;35.65;20.80;;;;;;;4.33;93.42;100926.66;7391055;19;20019;-69
2022/01/07 08:51:16;;;;;;;24.43;19.53;;;;;;;4.31;93.73;100930.16;7393997;19;20014;-69
2022/01/07 08:53:45;;;;;;;31.33;20.02;;;;;;;4.36;93.74;100937.91;7395933;19;20007;-69
2022/01/07 08:56:16;;;;;;;37.67;23.23;;;;;;;4.41;93.87;100938.66;7395215;19;20321;-68
2022/01/07 08:58:46;;;;;;;28.92;20.83;;;;;;;4.42;93.37;100940.38;7395011;19;20763;-69
2022/01/07 09:01:15;;;;;;;29.15;20.27;;;;;;;4.45;93.70;100943.75;7394612;19;20010;-69
2022/01/07 09:03:46;;;;;;;30.02;20.13;;;;;;;4.48;93.25;100946.34;7392608;19;20021;-68
2022/01/07 09:06:15;;;;;;;34.83;20.13;;;;;;;4.48;93.17;100945.47;7391557;19;20014;-69
2022/01/07 09:08:44;;;;;;;29.80;20.85;;;;;;;4.54;93.22;100939.31;7390116;19;20473;-69
2022/01/07 09:11:14;;;;;;;27.20;19.92;;;;;;;4.56;92.73;100945.34;7398917;19;20474;-69
2022/01/07 09:13:43;;;;;;;32.42;21.02;;;;;;;4.56;93.14;100933.22;7398847;19;20017;-68
2022/01/07 09:16:11;;;;;;;31.42;20.42;;;;;;;4.57;92.73;100940.13;7394597;19;20030;-69
2022/01/07 09:18:40;;;;;;;30.98;20.50;;;;;;;4.63;93.45;100940.00;7395245;19;20022;-68
2022/01/07 09:21:12;;;;;;;30.92;19.98;;;;;;;4.64;92.94;100944.31;7397123;19;20017;-69
2022/01/07 09:23:42;;;;;;;32.33;19.83;;;;;;;4.65;92.76;100938.22;7396950;19;20018;-69
2022/01/07 09:26:12;;;;;;;29.50;20.10;;;;;;;4.66;92.62;100939.94;7395551;19;20089;-68
2022/01/07 09:28:41;;;;;;;28.10;19.30;;;;;;;4.69;93.05;100933.84;7395075;19;20108;-69
2022/01/07 09:31:11;;;;;;;33.63;21.92;;;;;;;4.74;93.31;100941.56;7396791;19;20010;-69
2022/01/07 09:33:40;;;;;;;30.73;20.25;;;;;;;4.76;92.89;100938.03;7395967;19;20018;-69
2022/01/07 09:36:11;;;;;;;27.13;18.77;;;;;;;4.75;92.45;100933.72;7396154;19;20578;-65
2022/01/07 09:38:40;;;;;;;31.00;19.27;;;;;;;4.75;92.23;100927.69;7394706;19;20372;-69
2022/01/07 09:41:09;;;;;;;29.77;20.02;;;;;;;4.79;92.63;100931.94;7401030;19;20479;-68
2022/01/07 09:43:38;;;;;;;28.15;19.13;;;;;;;4.82;92.60;100934.47;7401970;19;20015;-67
2022/01/07 09:46:07;;;;;;;26.15;19.42;;;;;;;4.84;92.37;100940.50;7399482;19;20085;-67
2022/01/07 09:48:36;;;;;;;27.88;19.17;;;;;;;4.88;92.15;100934.34;7397344;19;20026;-67
2022/01/07 09:51:05;;;;;;;29.77;19.65;;;;;;;4.93;92.15;100942.06;7398904;19;20018;-68
2022/01/07 09:53:36;;;;;;;29.00;18.52;;;;;;;4.94;91.48;100952.44;7395530;19;20491;-67
2022/01/07 09:56:05;;;;;;;25.98;18.08;;;;;;;4.95;91.29;100948.09;7395685;19;20023;-67
2022/01/07 09:58:35;;;;;;;25.77;17.65;;;;;;;4.91;91.36;100934.28;7394505;19;20049;-68
2022/01/07 10:01:06;;;;;;;26.25;17.27;;;;;;;4.87;91.03;100932.63;7396267;19;20466;-67
2022/01/07 10:03:40;;;;;;;22.73;16.70;;;;;;;4.92;91.08;100936.00;7396261;19;20110;-68
2022/01/07 10:06:20;;;;;;;27.58;18.05;;;;;;;4.86;90.06;100920.56;7394046;19;20010;-67
2022/01/07 10:09:07;;;;;;;24.80;18.13;;;;;;;4.90;90.87;100924.81;7398263;19;20078;-67
2022/01/07 10:11:36;;;;;;;28.38;16.88;;;;;;;4.91;90.87;100926.50;7395516;19;20097;-66
2022/01/07 10:14:21;;;;;;;27.90;17.35;;;;;;;4.95;90.99;100924.72;7395655;19;20497;-67
2022/01/07 10:16:52;;;;;;;26.85;18.25;;;;;;;4.99;91.24;100924.63;7394927;19;20407;-69
2022/01/07 10:19:35;;;;;;;25.58;18.63;;;;;;;5.07;91.30;100927.06;7392340;19;20487;-67
2022/01/07 10:22:07;;;;;;;28.35;19.02;;;;;;;5.09;90.33;100919.25;7393512;19;20027;-67
2022/01/07 10:24:55;;;;;;;29.60;18.10;;;;;;;5.10;90.87;100920.97;7396124;19;20026;-68
2022/01/07 10:27:25;;;;;;;28.25;18.10;;;;;;;5.17;91.59;100907.84;7394867;19;20011;-71
2022/01/07 10:29:54;;;;;;;32.20;19.00;;;;;;;5.18;90.38;100919.91;7395468;19;20019;-68
2022/01/07 10:32:26;;;;;;;26.85;18.13;;;;;;;5.18;90.40;100908.69;7397946;19;20018;-68
2022/01/07 10:35:12;;;;;;;32.00;19.70;;;;;;;5.12;91.44;100909.66;7394871;19;20015;-66
2022/01/07 10:37:50;;;;;;;27.92;19.08;;;;;;;5.10;92.39;100908.84;7394739;19;20025;-66
2022/01/07 10:40:34;;;;;;;29.25;19.67;;;;;;;5.08;93.00;100907.16;7393236;19;20010;-68
2022/01/07 10:43:11;;;;;;;31.33;21.17;;;;;;;5.11;93.21;100896.69;7395380;19;20090;-66
2022/01/07 10:45:42;;;;;;;36.78;19.92;;;;;;;5.07;92.99;100901.09;7394589;19;20333;-67
2022/01/07 10:48:11;;;;;;;30.38;18.75;;;;;;;5.07;92.92;100893.28;7393517;19;20010;-67
2022/01/07 10:50:41;;;;;;;29.75;20.25;;;;;;;5.10;93.00;100895.84;7394655;19;20356;-66
2022/01/07 10:53:22;;;;;;;32.13;19.23;;;;;;;5.15;92.98;100891.41;7394506;19;20017;-67
2022/01/07 10:56:07;;;;;;;34.63;18.85;;;;;;;5.15;92.45;100887.97;7393189;19;20014;-66
2022/01/07 10:58:57;;;;;;;27.75;18.27;;;;;;;5.19;93.00;100877.47;7393696;19;20070;-67
2022/01/07 11:01:45;;;;;;;27.80;17.38;;;;;;;5.15;92.07;100873.22;7395164;19;20006;-68
2022/01/07 11:04:17;;;;;;;28.50;17.88;;;;;;;5.18;92.55;100873.16;7395688;19;20015;-68
2022/01/07 11:06:48;;;;;;;25.33;18.08;;;;;;;5.18;92.50;100877.50;7393240;19;20019;-67
2022/01/07 11:09:19;;;;;;;27.45;16.63;;;;;;;5.20;92.31;100876.59;7391906;19;20066;-68
2022/01/07 11:11:53;;;;;;;24.67;15.75;;;;;;;5.23;92.29;100882.59;7393719;19;20019;-67
2022/01/07 11:14:25;;;;;;;28.33;15.82;;;;;;;5.24;91.48;100882.56;7393644;19;20130;-67
2022/01/07 11:16:54;;;;;;;22.33;14.20;;;;;;;5.28;91.13;100883.38;7392269;19;20017;-68
2022/01/07 11:19:25;;;;;;;22.55;14.13;;;;;;;5.30;91.43;100884.19;7391191;19;20019;-67
2022/01/07 11:21:56;;;;;;;23.65;14.30;;;;;;;5.32;91.35;100867.66;7393182;19;20010;-67
2022/01/07 11:24:40;;;;;;;19.70;13.80;;;;;;;5.30;90.24;100876.38;7394025;19;20022;-68
2022/01/07 11:27:13;;;;;;;20.77;14.48;;;;;;;5.31;90.30;100873.75;7392848;19;20006;-67
2022/01/07 11:29:48;;;;;;;20.90;13.20;;;;;;;5.32;89.42;100882.41;7393387;19;20113;-67
2022/01/07 11:32:35;;;;;;;28.90;14.07;;;;;;;5.34;90.09;100886.69;7391072;19;20456;-68
2022/01/07 11:35:41;;;;;;;22.63;14.43;;;;;;;5.39;90.20;100881.41;7392943;19;20118;-67
2022/01/07 11:38:17;;;;;;;22.70;13.20;;;;;;;5.45;89.38;100875.22;7390987;19;20021;-68
2022/01/07 11:40:48;;;;;;;19.85;13.88;;;;;;;5.50;89.50;100876.81;7390944;19;20018;-68
2022/01/07 11:43:34;;;;;;;19.77;13.90;;;;;;;5.51;88.76;100873.31;7392631;19;20007;-67
2022/01/07 11:46:21;;;;;;;17.63;12.18;;;;;;;5.53;88.21;100881.94;7391350;19;20014;-68